Time;durP1;ratioP1;P1;durP2;ratioP2;P2;SDS_P1;SDS_P2;PMS_P1;PMS_P2;Temp;Humidity;BMP_temperature;BMP_pressure;BME280_temperature;BME280_humidity;BME280_pressure;Samples;Min_cycle;Max_cycle;Signal;HPM_P1;HPM_P2
2022/03/26 00:01:50;;;;;;;18.25;8.40;;;;;;;8.28;44.37;99727.72;4379805;32;20437;-71
2022/03/26 00:04:18;;;;;;;17.05;8.65;;;;;;;8.39;44.25;99727.03;4380126;32;20121;-70
2022/03/26 00:06:45;;;;;;;22.92;8.85;;;;;;;8.29;44.61;99725.94;4380186;32;20087;-70
2022/03/26 00:09:12;;;;;;;21.00;8.70;;;;;;;8.41;44.35;99725.16;4380055;32;20468;-71
2022/03/26 00:11:40;;;;;;;17.80;8.55;;;;;;;8.30;44.63;99725.03;4379996;32;20091;-71
2022/03/26 00:14:07;;;;;;;23.52;8.95;;;;;;;8.11;45.07;99728.78;4380018;32;20118;-71
2022/03/26 00:16:34;;;;;;;17.90;9.48;;;;;;;8.16;45.03;99736.31;4380103;32;20277;-70
2022/03/26 00:19:03;;;;;;;20.92;9.70;;;;;;;7.87;45.86;99741.59;4380025;32;20099;-70
2022/03/26 00:21:31;;;;;;;22.15;9.90;;;;;;;7.95;45.72;99733.34;4380285;32;20469;-70
2022/03/26 00:23:58;;;;;;;19.95;9.45;;;;;;;7.99;45.54;99735.66;4380014;32;20126;-70
2022/03/26 00:26:25;;;;;;;21.02;9.60;;;;;;;7.94;45.66;99737.69;4379869;32;20433;-70
2022/03/26 00:28:53;;;;;;;22.87;10.02;;;;;;;7.81;46.00;99731.56;4379901;32;20130;-70
2022/03/26 00:31:21;;;;;;;20.88;9.55;;;;;;;7.99;45.63;99737.41;4379794;32;20121;-71
2022/03/26 00:33:48;;;;;;;26.75;9.82;;;;;;;8.00;45.56;99734.69;4380244;32;20117;-70
2022/03/26 00:36:15;;;;;;;17.55;9.10;;;;;;;8.00;45.58;99737.31;4379925;32;20091;-70
2022/03/26 00:38:43;;;;;;;19.77;9.00;;;;;;;7.75;46.29;99732.81;4379924;32;20109;-70
2022/03/26 00:41:10;;;;;;;19.45;9.27;;;;;;;7.75;46.45;99734.56;4379844;32;20122;-70
2022/03/26 00:43:37;;;;;;;18.35;8.82;;;;;;;8.02;45.94;99731.16;4379824;32;20137;-70
2022/03/26 00:46:04;;;;;;;25.65;8.70;;;;;;;7.93;46.16;99736.03;4379849;32;20095;-71
2022/03/26 00:48:32;;;;;;;20.85;9.52;;;;;;;7.82;46.55;99728.84;4379788;32;20199;-70
2022/03/26 00:51:00;;;;;;;20.33;7.85;;;;;;;7.80;46.80;99735.13;4379653;32;20464;-70
2022/03/26 00:53:27;;;;;;;20.65;8.75;;;;;;;7.86;46.84;99733.87;4379768;32;20099;-71
2022/03/26 00:55:54;;;;;;;14.70;7.97;;;;;;;7.68;47.43;99726.28;4379799;32;20142;-70
2022/03/26 00:58:22;;;;;;;20.88;8.30;;;;;;;7.48;48.09;99730.12;4366303;32;20105;-71
2022/03/26 01:00:49;;;;;;;18.62;7.57;;;;;;;7.51;48.35;99726.47;4379533;32;20091;-71
2022/03/26 01:03:18;;;;;;;17.20;7.78;;;;;;;7.49;48.69;99730.94;4379632;32;20129;-70
2022/03/26 01:05:45;;;;;;;18.90;8.82;;;;;;;7.48;48.86;99724.91;4379729;32;20430;-70
2022/03/26 01:08:12;;;;;;;15.10;7.90;;;;;;;7.59;48.81;99726.84;4379678;32;20498;-70
2022/03/26 01:10:41;;;;;;;19.12;8.38;;;;;;;7.67;48.91;99718.56;4379567;32;20137;-70
2022/03/26 01:13:09;;;;;;;16.42;7.22;;;;;;;7.67;48.95;99718.56;4379679;32;20114;-70
2022/03/26 01:15:36;;;;;;;14.85;7.00;;;;;;;8.02;48.25;99725.94;4379520;32;20518;-71
2022/03/26 01:18:03;;;;;;;14.30;7.40;;;;;;;7.87;48.62;99725.13;4379672;32;20086;-70
2022/03/26 01:20:31;;;;;;;14.80;7.85;;;;;;;7.92;48.75;99723.91;4379645;32;20140;-70
2022/03/26 01:22:59;;;;;;;15.23;7.32;;;;;;;7.68;49.27;99715.03;4379631;32;20133;-70
2022/03/26 01:25:26;;;;;;;16.35;6.82;;;;;;;7.68;49.54;99720.25;4379577;32;20437;-70
2022/03/26 01:27:53;;;;;;;16.87;7.50;;;;;;;7.44;50.27;99710.38;4379526;32;20116;-70
2022/03/26 01:30:21;;;;;;;15.00;7.62;;;;;;;7.66;50.01;99719.47;4379496;32;20095;-70
2022/03/26 01:32:49;;;;;;;12.90;6.62;;;;;;;7.68;49.90;99718.47;4379847;32;20145;-70
2022/03/26 01:35:16;;;;;;;13.05;6.53;;;;;;;7.50;50.53;99723.03;4379547;32;20091;-71
2022/03/26 01:37:43;;;;;;;12.13;6.62;;;;;;;7.46;50.69;99716.31;4379521;32;20105;-70
2022/03/26 01:40:11;;;;;;;15.00;6.37;;;;;;;7.37;51.08;99716.88;4379386;32;20116;-70
2022/03/26 01:42:38;;;;;;;13.82;7.75;;;;;;;7.22;51.60;99713.44;4379538;32;20157;-70
2022/03/26 01:45:05;;;;;;;18.33;7.25;;;;;;;7.31;51.49;99714.66;4379458;32;20091;-70
2022/03/26 01:47:33;;;;;;;20.35;7.05;;;;;;;7.25;51.59;99713.25;4378823;32;20471;-70
2022/03/26 01:50:00;;;;;;;13.77;5.75;;;;;;;7.20;51.81;99703.09;4379482;32;20122;-70
2022/03/26 01:52:27;;;;;;;15.57;5.97;;;;;;;7.10;52.18;99704.56;4379420;32;20111;-70
2022/03/26 01:54:54;;;;;;;13.48;7.32;;;;;;;6.97;52.56;99714.91;4379415;32;20118;-70
2022/03/26 01:57:21;;;;;;;14.23;7.32;;;;;;;6.85;53.01;99706.03;4379399;32;20078;-70
2022/03/26 01:59:48;;;;;;;17.90;7.15;;;;;;;6.72;53.37;99705.09;4379302;32;20481;-71
2022/03/26 02:02:16;;;;;;;17.50;7.47;;;;;;;6.65;53.61;99706.38;4365963;32;20103;-71
2022/03/26 02:04:43;;;;;;;15.73;6.90;;;;;;;6.51;54.03;99705.41;4379293;32;20414;-71
2022/03/26 02:07:11;;;;;;;11.88;6.25;;;;;;;6.42;54.38;99702.47;4379224;32;20079;-70
2022/03/26 02:09:38;;;;;;;15.65;6.80;;;;;;;6.33;54.73;99698.66;4379189;32;20082;-71
2022/03/26 02:12:24;;;;;;;14.57;7.03;;;;;;;6.15;55.27;99706.56;4379140;32;20117;-70
2022/03/26 02:14:51;;;;;;;12.50;7.10;;;;;;;6.01;55.64;99702.13;4379320;32;20078;-71
2022/03/26 02:17:19;;;;;;;14.80;7.22;;;;;;;5.93;55.76;99700.84;4379255;32;20129;-71
2022/03/26 02:19:49;;;;;;;12.73;7.15;;;;;;;5.97;55.51;99692.81;4379293;32;20086;-71
2022/03/26 02:22:16;;;;;;;17.12;7.35;;;;;;;6.00;55.38;99691.81;4378138;32;20107;-71
2022/03/26 02:24:44;;;;;;;12.75;6.87;;;;;;;6.08;55.25;99694.00;4365604;32;20118;-71
2022/03/26 02:27:11;;;;;;;15.70;6.93;;;;;;;6.11;55.06;99699.03;4379127;32;20078;-71
2022/03/26 02:29:38;;;;;;;17.87;7.53;;;;;;;6.27;54.81;99701.59;4379091;32;20086;-71
2022/03/26 02:32:06;;;;;;;14.05;7.30;;;;;;;6.12;55.07;99698.94;4378931;32;20099;-71
2022/03/26 02:37:51;;;;;;;12.18;6.53;;;;;;;6.13;55.31;99694.56;4379103;32;20141;-71
2022/03/26 02:40:20;;;;;;;14.57;7.75;;;;;;;6.00;55.79;99697.84;4378858;32;20142;-70
2022/03/26 02:42:47;;;;;;;13.88;6.93;;;;;;;5.89;55.92;99699.31;4378923;32;20099;-71
2022/03/26 02:45:15;;;;;;;14.15;7.12;;;;;;;5.80;56.00;99691.13;4379164;32;20449;-70
2022/03/26 02:47:42;;;;;;;15.52;6.43;;;;;;;5.67;56.53;99690.09;4378878;32;20490;-71
2022/03/26 02:50:09;;;;;;;12.13;7.50;;;;;;;5.67;56.50;99692.72;4378933;32;20114;-71
2022/03/26 02:52:37;;;;;;;14.13;7.22;;;;;;;5.46;57.43;99697.28;4378770;32;20106;-70
2022/03/26 02:55:08;;;;;;;12.35;6.70;;;;;;;5.50;57.38;99694.44;4365382;32;20087;-70
2022/03/26 02:57:35;;;;;;;15.48;7.12;;;;;;;5.58;57.17;99698.41;4378777;32;20538;-70
2022/03/26 03:00:03;;;;;;;16.02;6.85;;;;;;;5.48;57.78;99693.69;4379423;32;20474;-71
2022/03/26 03:02:31;;;;;;;14.35;7.07;;;;;;;5.22;58.74;99707.22;4380748;32;20129;-71
2022/03/26 03:04:59;;;;;;;16.08;6.87;;;;;;;4.99;59.64;99701.44;4380595;32;20083;-70
2022/03/26 03:07:26;;;;;;;13.82;6.47;;;;;;;4.99;60.05;99701.44;4380551;32;20113;-70
2022/03/26 03:09:53;;;;;;;12.27;6.75;;;;;;;5.08;59.52;99708.75;4380515;32;20137;-70
2022/03/26 03:12:21;;;;;;;11.38;6.30;;;;;;;5.03;59.61;99705.56;4380521;32;20369;-70
2022/03/26 03:14:48;;;;;;;14.55;6.90;;;;;;;4.92;59.81;99703.53;4380507;32;20118;-70
2022/03/26 03:17:16;;;;;;;17.12;6.45;;;;;;;4.86;60.19;99708.19;4380309;32;20078;-71
2022/03/26 03:19:43;;;;;;;12.73;6.62;;;;;;;4.79;60.66;99700.69;4380423;32;20091;-70
2022/03/26 03:22:10;;;;;;;16.27;6.68;;;;;;;4.72;60.83;99701.91;4380467;32;20099;-71
2022/03/26 03:24:38;;;;;;;17.37;6.43;;;;;;;4.80;60.24;99699.78;4380396;32;20113;-70
2022/03/26 03:27:05;;;;;;;12.20;6.18;;;;;;;4.86;60.15;99703.00;4380335;32;20083;-70
2022/03/26 03:29:33;;;;;;;13.25;6.18;;;;;;;4.78;60.53;99699.03;4380374;32;20117;-70
2022/03/26 03:32:00;;;;;;;14.18;6.22;;;;;;;4.74;60.16;99694.91;4380496;32;20091;-70
2022/03/26 03:34:28;;;;;;;15.02;6.78;;;;;;;4.73;60.41;99702.78;4367083;32;20082;-70
2022/03/26 03:36:55;;;;;;;17.77;6.70;;;;;;;4.70;60.73;99701.16;4380311;32;20094;-71
2022/03/26 03:39:23;;;;;;;13.60;6.97;;;;;;;4.68;60.78;99695.22;4380388;32;20138;-71
2022/03/26 03:41:50;;;;;;;15.20;6.87;;;;;;;4.54;60.87;99693.31;4380351;32;20175;-70
2022/03/26 03:44:17;;;;;;;12.30;6.72;;;;;;;4.43;61.11;99700.78;4380168;32;20091;-70
2022/03/26 03:46:44;;;;;;;13.65;6.22;;;;;;;4.36;61.48;99697.66;4380225;32;20471;-70
2022/03/26 03:49:12;;;;;;;14.77;7.12;;;;;;;4.26;61.76;99699.00;4380235;32;20377;-70
2022/03/26 03:51:39;;;;;;;15.00;6.43;;;;;;;4.09;62.38;99692.03;4380083;32;20119;-71
2022/03/26 03:54:08;;;;;;;16.42;6.85;;;;;;;3.97;62.72;99698.66;4380313;32;20504;-70
2022/03/26 03:56:35;;;;;;;13.95;6.60;;;;;;;3.90;63.22;99695.47;4380177;32;20368;-70
2022/03/26 03:59:02;;;;;;;14.07;6.53;;;;;;;3.90;63.25;99692.06;4380225;32;20125;-70
2022/03/26 04:01:30;;;;;;;17.55;6.18;;;;;;;3.89;63.24;99688.63;4379718;32;20125;-71
2022/03/26 04:03:57;;;;;;;15.80;6.55;;;;;;;3.90;63.25;99695.47;4380451;32;20107;-70
2022/03/26 04:06:24;;;;;;;10.93;6.10;;;;;;;3.86;63.09;99686.19;4380130;32;20105;-70
2022/03/26 04:08:51;;;;;;;11.93;7.07;;;;;;;3.79;63.13;99687.38;4380043;32;20094;-71
2022/03/26 04:11:19;;;;;;;16.58;7.57;;;;;;;3.77;63.14;99689.22;4379757;32;20570;-71
2022/03/26 04:13:52;;;;;;;12.68;6.57;;;;;;;3.78;63.31;99690.03;4380137;32;20091;-70
2022/03/26 04:16:20;;;;;;;15.63;7.50;;;;;;;3.67;63.44;99685.38;4380155;32;20082;-70
2022/03/26 04:18:48;;;;;;;14.52;6.65;;;;;;;3.67;63.43;99688.78;4380125;32;20087;-70
2022/03/26 04:21:19;;;;;;;24.70;7.30;;;;;;;3.63;63.66;99692.41;4380057;32;20095;-70
2022/03/26 04:23:46;;;;;;;12.35;7.28;;;;;;;3.58;63.73;99686.63;4380023;32;20094;-70
2022/03/26 04:26:14;;;;;;;20.35;7.43;;;;;;;3.61;63.66;99691.66;4379979;32;20095;-70
2022/03/26 04:28:41;;;;;;;16.80;7.75;;;;;;;3.62;63.58;99697.66;4379970;32;20122;-70
2022/03/26 04:31:09;;;;;;;13.20;6.82;;;;;;;3.57;63.60;99699.66;4379910;32;20121;-70
2022/03/26 04:33:36;;;;;;;13.50;7.50;;;;;;;3.58;63.51;99694.38;4379828;32;20146;-70
2022/03/26 04:36:03;;;;;;;11.77;6.95;;;;;;;3.56;63.44;99704.00;4379883;32;20439;-70
2022/03/26 04:38:31;;;;;;;15.75;7.12;;;;;;;3.52;63.45;99698.09;4379866;32;20121;-71
2022/03/26 04:40:58;;;;;;;11.75;7.20;;;;;;;3.53;63.42;99701.53;4380299;32;20094;-70
2022/03/26 04:43:25;;;;;;;14.35;7.43;;;;;;;3.48;63.69;99708.66;4379939;32;20156;-70
2022/03/26 04:45:52;;;;;;;15.52;7.45;;;;;;;3.37;63.78;99711.72;4379740;32;20113;-70
2022/03/26 04:48:19;;;;;;;15.52;8.02;;;;;;;3.35;63.83;99709.22;4379814;32;20094;-70
2022/03/26 04:50:47;;;;;;;18.08;8.25;;;;;;;3.35;64.11;99711.81;4379775;32;20103;-71
2022/03/26 04:53:14;;;;;;;17.75;8.85;;;;;;;3.51;63.59;99706.78;4379812;32;20091;-70
2022/03/26 04:55:41;;;;;;;17.35;8.48;;;;;;;3.76;62.81;99708.25;4379764;32;20086;-70
2022/03/26 04:58:09;;;;;;;18.25;8.93;;;;;;;3.92;62.05;99705.78;4379628;32;20091;-71
2022/03/26 05:00:36;;;;;;;16.15;8.93;;;;;;;4.02;61.57;99707.03;4379510;32;20161;-70
2022/03/26 05:03:04;;;;;;;18.48;8.85;;;;;;;4.18;61.00;99707.16;4379643;32;20472;-70
2022/03/26 05:05:31;;;;;;;13.98;8.23;;;;;;;4.33;60.44;99704.72;4379739;32;20125;-70
2022/03/26 05:07:59;;;;;;;15.63;8.60;;;;;;;4.46;59.97;99708.41;4379603;32;20137;-70
2022/03/26 05:10:28;;;;;;;16.42;8.80;;;;;;;4.49;60.32;99705.66;4379699;32;20574;-70
2022/03/26 05:16:26;;;;;;;20.90;9.55;;;;;;;4.79;58.90;99708.50;4379657;32;20138;-71
2022/03/26 05:18:54;;;;;;;19.15;9.40;;;;;;;5.19;57.64;99717.75;4379548;32;20165;-70
2022/03/26 05:21:21;;;;;;;18.87;8.35;;;;;;;5.32;57.39;99718.81;4379360;32;20090;-70
2022/03/26 05:23:48;;;;;;;18.85;9.15;;;;;;;5.75;55.79;99723.47;4378840;32;20095;-70
2022/03/26 05:26:16;;;;;;;19.73;9.50;;;;;;;5.82;55.42;99730.88;4379472;32;20091;-71
2022/03/26 05:28:43;;;;;;;19.90;9.52;;;;;;;6.05;54.82;99728.81;4379489;32;20516;-70
2022/03/26 05:31:10;;;;;;;21.20;9.95;;;;;;;6.31;53.80;99729.13;4379588;32;20095;-71
2022/03/26 05:33:38;;;;;;;19.92;10.05;;;;;;;6.41;53.09;99719.87;4379482;32;20723;-71
2022/03/26 05:36:05;;;;;;;23.23;9.88;;;;;;;6.68;52.02;99722.66;4379422;32;20059;-71
2022/03/26 05:38:32;;;;;;;25.58;9.38;;;;;;;6.92;51.52;99722.16;4379308;32;20186;-71
2022/03/26 05:41:00;;;;;;;23.38;9.50;;;;;;;7.16;50.94;99726.84;4379625;32;20102;-70
2022/03/26 05:43:27;;;;;;;21.17;9.77;;;;;;;7.44;50.10;99726.84;4379488;32;20452;-71
2022/03/26 05:49:25;;;;;;;22.62;9.85;;;;;;;7.90;49.01;99730.16;4379372;32;20459;-71
2022/03/26 05:51:52;;;;;;;20.15;9.32;;;;;;;8.09;48.28;99740.28;4379225;32;20127;-71
2022/03/26 05:54:19;;;;;;;22.65;10.40;;;;;;;8.35;47.59;99729.00;4379420;32;20110;-71
2022/03/26 05:56:51;;;;;;;22.58;10.02;;;;;;;8.41;47.69;99730.38;4379379;32;20082;-71
2022/03/26 05:59:28;;;;;;;20.48;9.43;;;;;;;8.64;46.92;99734.13;4379245;32;20090;-71
2022/03/26 06:01:55;;;;;;;16.20;8.88;;;;;;;8.76;46.30;99739.50;4379067;32;20094;-70
2022/03/26 06:04:27;;;;;;;20.12;9.52;;;;;;;8.87;46.42;99731.75;4375558;32;115135;-71
2022/03/26 06:06:54;;;;;;;19.87;8.50;;;;;;;9.23;45.86;99743.28;4379143;32;20425;-71
2022/03/26 06:09:21;;;;;;;18.00;9.30;;;;;;;9.39;45.32;99736.06;4379291;32;20117;-71
2022/03/26 06:11:49;;;;;;;15.52;7.93;;;;;;;9.67;45.20;99751.63;4379169;32;20173;-71
2022/03/26 06:14:17;;;;;;;17.45;8.30;;;;;;;9.86;45.14;99741.56;4378980;32;20107;-71
2022/03/26 06:20:16;;;;;;;13.25;7.50;;;;;;;10.16;43.94;99748.19;4379144;32;20627;-71
2022/03/26 06:22:44;;;;;;;20.25;8.57;;;;;;;10.50;42.40;99750.16;4379084;32;20121;-71
2022/03/26 06:28:42;;;;;;;14.38;7.80;;;;;;;10.77;41.78;99747.28;4378971;32;20166;-71
2022/03/26 06:31:12;;;;;;;17.83;8.45;;;;;;;10.94;42.53;99754.72;4379010;32;20214;-71
2022/03/26 06:37:10;;;;;;;18.60;9.13;;;;;;;11.13;42.02;99751.56;4378981;32;20515;-71
2022/03/26 06:39:38;;;;;;;18.95;8.57;;;;;;;11.09;41.22;99747.47;4378875;32;20082;-71
2022/03/26 06:42:05;;;;;;;21.67;9.52;;;;;;;11.26;40.12;99758.47;4378689;32;20094;-71
2022/03/26 06:44:32;;;;;;;16.58;8.90;;;;;;;11.03;40.57;99762.84;4378738;32;20121;-71
2022/03/26 06:46:59;;;;;;;17.45;8.30;;;;;;;11.06;40.70;99752.13;4378873;32;20087;-71
2022/03/26 06:49:30;;;;;;;18.23;8.90;;;;;;;11.29;40.56;99760.88;4378916;32;20525;-71
2022/03/26 06:55:27;;;;;;;20.92;8.88;;;;;;;11.88;39.90;99762.44;4378733;32;20615;-71
2022/03/26 06:57:54;;;;;;;21.80;9.75;;;;;;;11.41;41.61;99762.56;4378628;32;20157;-71
2022/03/26 07:00:22;;;;;;;17.17;9.00;;;;;;;11.49;41.68;99765.44;4378363;32;20452;-71
2022/03/26 07:02:49;;;;;;;18.67;9.05;;;;;;;11.47;41.79;99767.31;4378464;32;20095;-71
2022/03/26 07:05:17;;;;;;;18.37;9.63;;;;;;;11.32;42.30;99763.25;4378436;32;20417;-71
2022/03/26 07:07:44;;;;;;;20.70;9.82;;;;;;;11.38;42.20;99775.06;4378267;32;20094;-71
2022/03/26 07:10:12;;;;;;;24.35;10.85;;;;;;;11.54;41.89;99772.94;4377929;32;20095;-71
2022/03/26 07:16:09;;;;;;;22.65;10.55;;;;;;;11.56;41.79;99780.72;4378225;32;20162;-71
2022/03/26 07:18:37;;;;;;;22.45;9.40;;;;;;;11.22;42.52;99772.78;4378048;32;20541;-71
2022/03/26 07:21:04;;;;;;;27.25;10.38;;;;;;;11.41;41.28;99783.53;4377952;32;20086;-71
2022/03/26 07:23:31;;;;;;;19.48;10.20;;;;;;;11.12;41.66;99781.34;4378168;32;20448;-71
2022/03/26 07:25:59;;;;;;;25.65;9.70;;;;;;;10.89;42.00;99788.31;4378013;32;20418;-71
2022/03/26 07:28:26;;;;;;;25.37;9.70;;;;;;;11.07;42.05;99785.28;4378093;32;20163;-71
2022/03/26 07:30:53;;;;;;;25.08;10.25;;;;;;;10.97;42.08;99785.13;4378015;32;20232;-71
2022/03/26 07:33:20;;;;;;;17.05;8.85;;;;;;;10.95;41.27;99782.63;4377778;32;20112;-71
2022/03/26 07:35:48;;;;;;;20.70;9.95;;;;;;;10.93;41.64;99774.03;4378121;32;20213;-71
2022/03/26 07:38:15;;;;;;;21.50;9.55;;;;;;;11.07;41.11;99791.34;4378068;32;20154;-71
2022/03/26 07:40:42;;;;;;;22.60;9.75;;;;;;;11.05;41.07;99782.75;4377647;32;20113;-71
2022/03/26 07:43:09;;;;;;;18.30;8.57;;;;;;;11.22;40.83;99788.50;4377409;32;20368;-72
2022/03/26 07:45:37;;;;;;;17.85;9.38;;;;;;;11.18;41.13;99790.53;4378487;32;20099;-72
2022/03/26 07:48:05;;;;;;;25.42;9.82;;;;;;;11.14;41.16;99786.47;4380087;32;20476;-71
2022/03/26 07:50:32;;;;;;;16.73;8.23;;;;;;;11.44;40.53;99783.31;4380304;32;20086;-71
2022/03/26 07:52:59;;;;;;;21.98;9.77;;;;;;;11.48;40.08;99789.16;4380048;32;20125;-71
2022/03/26 07:55:27;;;;;;;17.48;7.97;;;;;;;11.62;39.65;99793.34;4380116;32;20146;-72
2022/03/26 07:57:54;;;;;;;20.65;9.65;;;;;;;11.71;39.18;99784.75;4380028;32;20401;-72
2022/03/26 08:00:21;;;;;;;17.77;9.43;;;;;;;11.64;39.50;99796.69;4379633;32;20078;-72
2022/03/26 08:02:48;;;;;;;19.90;9.45;;;;;;;11.83;39.30;99785.59;4379799;32;20173;-71
2022/03/26 08:05:15;;;;;;;20.10;10.38;;;;;;;12.12;39.33;99785.94;4379777;32;20378;-72
2022/03/26 08:07:43;;;;;;;21.75;10.38;;;;;;;12.09;38.89;99796.69;4379898;32;20109;-71
2022/03/26 08:10:10;;;;;;;19.35;9.48;;;;;;;12.12;39.20;99799.09;4379697;32;20165;-71
2022/03/26 08:12:39;;;;;;;29.00;10.52;;;;;;;11.97;39.18;99784.53;4379544;32;20396;-71
2022/03/26 08:15:06;;;;;;;21.75;9.57;;;;;;;11.95;39.02;99791.72;4378735;32;20133;-71
2022/03/26 08:17:34;;;;;;;21.70;8.68;;;;;;;12.25;38.72;99781.38;4379916;32;20123;-71
2022/03/26 08:20:01;;;;;;;16.62;8.70;;;;;;;12.48;39.02;99778.72;4379539;32;20188;-72
2022/03/26 08:22:28;;;;;;;16.58;9.48;;;;;;;12.84;37.79;99779.28;4379693;32;20103;-71
2022/03/26 08:24:56;;;;;;;24.48;8.90;;;;;;;12.87;38.38;99781.66;4379732;32;20182;-72
2022/03/26 08:27:23;;;;;;;14.23;8.55;;;;;;;13.12;37.50;99783.06;4379882;32;20086;-72
2022/03/26 08:29:50;;;;;;;13.57;7.70;;;;;;;13.16;38.23;99783.66;4379780;32;20543;-72
2022/03/26 08:32:18;;;;;;;15.70;8.10;;;;;;;13.34;37.34;99780.47;4379728;32;20129;-72
2022/03/26 08:34:46;;;;;;;16.42;7.90;;;;;;;13.62;36.06;99778.94;4380047;32;20141;-71
2022/03/26 08:37:13;;;;;;;16.62;7.70;;;;;;;13.79;36.38;99785.38;4379612;32;20083;-71
2022/03/26 08:39:40;;;;;;;17.00;8.93;;;;;;;13.73;36.28;99793.81;4379778;32;20401;-71
2022/03/26 08:42:08;;;;;;;17.42;8.55;;;;;;;13.75;36.65;99794.53;4379732;32;20125;-71
2022/03/26 08:44:35;;;;;;;15.75;7.37;;;;;;;13.86;36.42;99786.53;4379681;32;20094;-72
2022/03/26 08:47:05;;;;;;;12.95;7.95;;;;;;;13.65;36.38;99792.69;4379581;32;20106;-71
2022/03/26 08:49:33;;;;;;;20.23;8.85;;;;;;;13.70;36.52;99796.72;4379994;32;20440;-72
2022/03/26 08:52:00;;;;;;;21.87;9.13;;;;;;;14.00;36.59;99791.44;4379787;32;20523;-71
2022/03/26 08:54:28;;;;;;;18.90;9.05;;;;;;;14.10;36.51;99799.38;4379742;32;20441;-71
2022/03/26 08:56:55;;;;;;;20.30;9.43;;;;;;;14.22;36.41;99800.09;4378703;32;20109;-71
2022/03/26 08:59:23;;;;;;;17.20;9.73;;;;;;;14.13;36.52;99788.56;4379661;32;20117;-72
2022/03/26 09:01:51;;;;;;;15.98;8.90;;;;;;;14.28;36.55;99794.28;4379559;32;20107;-72
2022/03/26 09:04:19;;;;;;;17.60;9.13;;;;;;;14.46;36.70;99790.97;4380038;32;20138;-72
2022/03/26 09:06:46;;;;;;;17.80;9.32;;;;;;;14.27;36.73;99794.41;4379667;32;20170;-72
2022/03/26 09:09:15;;;;;;;22.02;11.30;;;;;;;14.64;35.84;99802.56;4379600;32;20425;-72
2022/03/26 09:11:43;;;;;;;18.98;7.97;;;;;;;14.68;35.59;99793.38;4379488;32;20174;-72
2022/03/26 09:14:12;;;;;;;16.08;7.82;;;;;;;14.78;34.99;99800.50;4379408;32;20099;-71
2022/03/26 09:16:40;;;;;;;16.23;6.97;;;;;;;14.90;34.31;99775.62;4379682;32;20109;-72
2022/03/26 09:19:07;;;;;;;18.58;8.25;;;;;;;14.96;34.72;99785.63;4379628;32;20456;-71
2022/03/26 09:21:34;;;;;;;18.62;8.93;;;;;;;14.88;35.15;99788.09;4379814;32;20099;-71
2022/03/26 09:24:02;;;;;;;21.12;7.95;;;;;;;15.18;35.19;99788.91;4379599;32;20161;-72
2022/03/26 09:26:29;;;;;;;16.73;7.93;;;;;;;15.16;34.10;99775.84;4379531;32;20083;-71
2022/03/26 09:28:56;;;;;;;20.77;7.40;;;;;;;15.18;34.13;99787.09;4379569;32;20078;-72
2022/03/26 09:31:24;;;;;;;15.95;7.95;;;;;;;15.51;33.71;99784.12;4379550;32;20087;-71
2022/03/26 09:33:51;;;;;;;18.30;8.25;;;;;;;15.51;34.00;99778.84;4379474;32;20152;-72
2022/03/26 09:36:18;;;;;;;16.83;7.90;;;;;;;15.13;34.43;99778.78;4379489;32;20159;-71
2022/03/26 09:38:46;;;;;;;38.42;8.55;;;;;;;15.41;33.72;99774.41;4379575;32;20082;-72
2022/03/26 09:41:14;;;;;;;12.82;6.97;;;;;;;15.51;33.70;99779.66;4379499;32;20543;-72
2022/03/26 09:43:41;;;;;;;20.33;7.65;;;;;;;15.50;33.42;99771.87;4366066;32;20098;-72
2022/03/26 09:46:08;;;;;;;13.73;7.28;;;;;;;15.66;33.52;99777.38;4365964;32;20111;-72
2022/03/26 09:48:37;;;;;;;16.55;7.53;;;;;;;15.64;33.47;99779.34;4379434;32;20082;-71
2022/03/26 09:54:38;;;;;;;16.10;6.60;;;;;;;15.68;33.25;99769.31;4379339;32;20774;-71
2022/03/26 09:57:07;;;;;;;12.55;6.10;;;;;;;16.16;32.50;99767.44;4379346;32;20154;-71
2022/03/26 09:59:35;;;;;;;14.30;6.05;;;;;;;16.11;31.54;99774.00;4379365;32;20436;-71
2022/03/26 10:02:03;;;;;;;13.65;6.12;;;;;;;16.08;31.71;99771.66;4379115;32;20094;-71
2022/03/26 10:04:41;;;;;;;16.95;7.32;;;;;;;16.17;31.07;99772.59;4379396;32;20496;-71
2022/03/26 10:07:08;;;;;;;12.77;6.57;;;;;;;16.08;31.79;99779.59;4379651;32;20136;-71
2022/03/26 10:09:37;;;;;;;23.35;5.93;;;;;;;15.97;32.19;99769.19;4378792;32;20086;-71
2022/03/26 10:12:06;;;;;;;13.38;4.62;;;;;;;16.43;31.10;99775.31;4379201;32;20117;-71
2022/03/26 10:14:42;;;;;;;11.18;4.60;;;;;;;16.42;30.42;99770.19;4378918;32;20102;-71
2022/03/26 10:17:18;;;;;;;9.23;4.15;;;;;;;16.42;29.53;99773.66;4378933;32;20078;-71
2022/03/26 10:23:27;;;;;;;20.70;5.82;;;;;;;16.81;29.37;99762.78;4379222;32;20132;-71
2022/03/26 10:26:09;;;;;;;10.52;5.12;;;;;;;16.61;28.09;99767.41;4379183;32;20416;-71
2022/03/26 10:28:36;;;;;;;7.90;4.07;;;;;;;16.26;28.22;99762.91;4378725;32;20074;-70
2022/03/26 10:34:19;;;;;;;11.73;5.68;;;;;;;16.62;28.03;99768.22;4379033;32;20510;-71
2022/03/26 10:36:57;;;;;;;10.85;5.93;;;;;;;16.61;26.73;99764.75;4378948;32;20158;-70
2022/03/26 10:39:29;;;;;;;9.95;5.18;;;;;;;16.72;27.87;99757.56;4378890;32;20109;-71
2022/03/26 10:41:57;;;;;;;12.15;5.93;;;;;;;16.58;27.21;99751.84;4378929;32;20601;-70
2022/03/26 10:44:29;;;;;;;12.43;5.40;;;;;;;16.55;27.54;99756.56;4378548;32;20117;-71
2022/03/26 10:47:02;;;;;;;12.82;5.40;;;;;;;16.42;26.05;99751.69;4378540;32;20114;-71
2022/03/26 10:49:30;;;;;;;;;;;;;;;16.57;26.65;99757.28;4379076;32;20507;-70
2022/03/26 10:52:18;;;;;;;15.55;6.35;;;;;;;16.75;28.10;99736.09;4378654;32;20320;-70
2022/03/26 10:54:47;;;;;;;11.73;5.60;;;;;;;17.00;27.93;99732.69;4378398;32;20460;-70
2022/03/26 11:00:44;;;;;;;16.85;6.35;;;;;;;16.95;28.48;99729.66;4378439;32;20181;-70
2022/03/26 11:03:12;;;;;;;13.25;6.80;;;;;;;17.08;28.78;99725.75;4378521;32;20133;-70
2022/03/26 11:05:40;;;;;;;15.05;6.80;;;;;;;17.32;28.65;99727.72;4364946;32;20095;-70
2022/03/26 11:08:09;;;;;;;12.43;6.62;;;;;;;17.37;27.77;99720.16;4364997;32;20551;-70
2022/03/26 11:10:36;;;;;;;10.88;6.37;;;;;;;17.55;27.26;99730.69;4378323;32;20098;-71
2022/03/26 11:13:04;;;;;;;10.90;6.47;;;;;;;17.27;27.44;99714.13;4378110;32;20083;-71
2022/03/26 11:15:34;;;;;;;13.77;7.10;;;;;;;17.37;27.59;99706.91;4364618;32;20095;-71
2022/03/26 11:18:19;;;;;;;15.80;7.22;;;;;;;17.64;27.48;99712.97;4365013;32;20102;-70
2022/03/26 11:21:10;;;;;;;12.85;6.72;;;;;;;17.12;27.44;99706.78;4379243;32;20087;-70
2022/03/26 11:23:46;;;;;;;13.85;7.20;;;;;;;17.31;26.97;99712.84;4380435;32;20087;-70
2022/03/26 11:26:20;;;;;;;12.35;6.00;;;;;;;17.42;26.47;99712.56;4366980;32;20094;-70
2022/03/26 11:29:04;;;;;;;12.40;6.75;;;;;;;17.65;26.18;99701.41;4367007;32;20107;-70
2022/03/26 11:31:48;;;;;;;11.23;6.18;;;;;;;17.36;26.53;99705.25;4366882;32;20086;-70
2022/03/26 11:34:17;;;;;;;12.98;7.47;;;;;;;17.52;25.97;99697.38;4380288;32;20504;-70
2022/03/26 11:36:45;;;;;;;13.57;6.90;;;;;;;17.32;26.45;99693.28;4380311;32;20090;-70
2022/03/26 11:39:20;;;;;;;10.25;6.30;;;;;;;17.21;25.66;99681.16;4366868;32;20110;-70
2022/03/26 11:41:47;;;;;;;14.00;7.43;;;;;;;17.50;25.03;99678.16;4380163;32;20102;-70
2022/03/26 11:44:18;;;;;;;12.13;5.75;;;;;;;17.59;24.28;99672.87;4380178;32;20079;-70
2022/03/26 11:55:54;;;;;;;13.62;6.93;;;;;;;17.24;24.97;99664.97;4380273;32;20105;-70
2022/03/26 11:58:26;;;;;;;14.87;7.82;;;;;;;17.77;23.84;99668.31;4380028;32;20121;-70
2022/03/26 12:00:53;;;;;;;15.77;7.93;;;;;;;17.92;23.67;99660.59;4379729;32;20103;-70
2022/03/26 12:03:25;;;;;;;14.98;8.25;;;;;;;17.76;23.46;99661.38;4380076;32;20114;-70
2022/03/26 12:08:52;;;;;;;22.02;9.60;;;;;;;17.77;24.07;99647.09;4379989;32;20122;-70
2022/03/26 12:11:23;;;;;;;19.23;9.95;;;;;;;17.60;23.86;99650.72;4380168;32;20090;-71
2022/03/26 12:14:04;;;;;;;15.13;7.05;;;;;;;18.06;23.70;99645.84;4379868;32;20083;-70
2022/03/26 12:16:50;;;;;;;15.35;7.40;;;;;;;18.50;22.49;99642.91;4380032;32;20075;-71
2022/03/26 12:19:36;;;;;;;13.93;7.57;;;;;;;18.22;21.16;99640.56;4380266;32;20160;-71
2022/03/26 12:22:26;;;;;;;16.00;8.95;;;;;;;18.01;22.60;99646.34;4379843;32;20082;-71
2022/03/26 12:24:56;;;;;;;14.18;7.60;;;;;;;18.05;22.58;99639.72;4379757;32;20117;-70
2022/03/26 12:27:24;;;;;;;16.98;9.35;;;;;;;18.11;21.70;99621.50;4379697;32;20086;-70
2022/03/26 12:29:53;;;;;;;16.17;8.50;;;;;;;18.34;22.23;99627.81;4379694;32;20102;-70